Time;durP1;ratioP1;P1;durP2;ratioP2;P2;SDS_P1;SDS_P2;PMS_P1;PMS_P2;Temp;Humidity;BMP_temperature;BMP_pressure;BME280_temperature;BME280_humidity;BME280_pressure;Samples;Min_cycle;Max_cycle;Signal;HPM_P1;HPM_P2
2023/07/09 00:01:44;;;;;;;9.68;7.88;;;;;;;20.93;93.19;100226.00;5087856;28;20028;-19
2023/07/09 00:04:11;;;;;;;11.57;8.23;;;;;;;20.71;91.54;100227.25;5087655;28;20420;-21
2023/07/09 00:06:38;;;;;;;11.13;8.73;;;;;;;20.67;92.50;100226.19;5088052;28;20054;-18
2023/07/09 00:09:04;;;;;;;14.30;8.38;;;;;;;20.50;93.05;100228.47;5088119;28;20028;-19
2023/07/09 00:11:30;;;;;;;9.48;8.10;;;;;;;20.34;93.19;100227.75;5087978;28;20028;-20
2023/07/09 00:13:55;;;;;;;9.70;7.32;;;;;;;20.18;94.25;100214.28;5087793;28;20040;-20
2023/07/09 00:16:25;;;;;;;13.27;7.80;;;;;;;20.28;94.01;100219.63;5087522;28;20020;-19
2023/07/09 00:18:51;;;;;;;8.63;6.70;;;;;;;20.10;95.18;100222.19;5087498;28;20424;-18
2023/07/09 00:21:18;;;;;;;9.07;6.80;;;;;;;20.12;97.28;100211.88;5087324;28;20028;-20
2023/07/09 00:23:43;;;;;;;11.38;7.40;;;;;;;20.12;96.07;100223.50;5087630;28;20064;-18
2023/07/09 00:26:13;;;;;;;8.07;6.43;;;;;;;20.05;95.49;100209.47;5087456;28;20125;-24
2023/07/09 00:28:40;;;;;;;9.40;6.82;;;;;;;20.16;95.72;100230.00;5087521;28;20052;-20
2023/07/09 00:31:13;;;;;;;9.23;6.75;;;;;;;20.11;95.42;100229.22;5087422;28;20059;-18
2023/07/09 00:33:39;;;;;;;12.75;6.25;;;;;;;19.81;97.79;100228.25;5087385;28;20040;-20
2023/07/09 00:36:15;;;;;;;9.30;6.15;;;;;;;19.94;97.28;100229.56;5087315;28;20020;-18
2023/07/09 00:38:47;;;;;;;9.13;6.38;;;;;;;19.89;98.88;100224.16;5087357;28;20106;-18
2023/07/09 00:41:17;;;;;;;8.35;6.10;;;;;;;19.90;98.17;100226.63;5086804;28;20056;-19
2023/07/09 00:43:47;;;;;;;7.78;6.15;;;;;;;19.95;99.53;100232.00;5087000;28;20493;-19
2023/07/09 00:46:27;;;;;;;9.23;6.30;;;;;;;19.82;99.20;100228.00;5087464;28;20032;-18
2023/07/09 00:49:33;;;;;;;8.20;5.93;;;;;;;20.20;97.50;100228.34;5087069;28;20115;-19
2023/07/09 00:52:03;;;;;;;10.07;6.15;;;;;;;20.39;98.11;100214.16;5086831;28;20123;-18
2023/07/09 00:54:43;;;;;;;7.85;6.60;;;;;;;20.34;98.52;100209.59;5086915;28;20024;-23
2023/07/09 00:57:17;;;;;;;9.13;6.28;;;;;;;20.53;95.46;100215.13;5086680;28;20059;-18
2023/07/09 00:59:46;;;;;;;8.88;6.40;;;;;;;20.55;94.83;100217.56;5086762;28;20039;-18
2023/07/09 01:02:12;;;;;;;7.97;6.20;;;;;;;20.63;96.61;100220.50;5086554;28;20488;-18
2023/07/09 01:04:39;;;;;;;8.07;5.97;;;;;;;20.69;95.76;100224.00;5087134;28;20024;-19
2023/07/09 01:07:04;;;;;;;8.88;5.68;;;;;;;20.62;95.03;100223.53;5086735;28;20103;-19
2023/07/09 01:09:30;;;;;;;9.02;5.80;;;;;;;20.72;95.29;100223.47;5085426;28;20839;-17
2023/07/09 01:12:00;;;;;;;9.10;6.18;;;;;;;20.62;93.99;100218.13;5086699;28;20918;-18
2023/07/09 01:14:26;;;;;;;7.72;5.88;;;;;;;20.58;95.17;100206.19;5086794;28;20089;-18
2023/07/09 01:16:58;;;;;;;9.38;6.13;;;;;;;20.62;93.68;100210.78;5086480;28;20020;-20
2023/07/09 01:19:31;;;;;;;11.50;6.18;;;;;;;20.46;93.06;100223.59;5086624;28;20020;-18
2023/07/09 01:21:59;;;;;;;9.38;6.55;;;;;;;20.41;94.00;100229.06;5086504;28;20027;-20
2023/07/09 01:25:05;;;;;;;7.95;5.85;;;;;;;20.17;93.27;100222.69;5086400;28;20042;-18
2023/07/09 01:27:38;;;;;;;7.72;5.50;;;;;;;19.83;94.69;100234.19;5086292;28;20044;-19
2023/07/09 01:30:08;;;;;;;7.80;5.60;;;;;;;19.59;91.32;100233.97;5086104;28;20051;-18
2023/07/09 01:32:34;;;;;;;9.18;5.93;;;;;;;19.71;91.96;100245.31;5086445;28;20401;-19
2023/07/09 01:35:04;;;;;;;9.18;6.20;;;;;;;19.56;90.77;100259.69;5085945;28;20613;-18
2023/07/09 01:37:33;;;;;;;11.57;6.18;;;;;;;19.56;95.44;100251.56;5086198;28;20530;-18
2023/07/09 01:39:58;;;;;;;8.48;6.15;;;;;;;19.79;95.54;100254.78;5086229;28;20068;-18
2023/07/09 01:42:26;;;;;;;10.23;6.28;;;;;;;19.89;96.06;100259.34;5085902;28;20023;-18
2023/07/09 01:44:53;;;;;;;10.27;6.82;;;;;;;19.85;95.24;100259.09;5085910;28;20064;-18
2023/07/09 01:47:19;;;;;;;10.82;6.80;;;;;;;19.97;94.41;100265.00;5085704;28;20622;-20
2023/07/09 01:49:47;;;;;;;10.30;6.15;;;;;;;20.11;94.22;100265.22;5085812;28;20562;-19
2023/07/09 01:52:13;;;;;;;;;;;;;;;20.04;94.61;100262.00;5085140;28;20551;-19
2023/07/09 01:54:39;;;;;;;9.93;6.68;;;;;;;20.20;92.97;100263.53;5085656;28;19995;-19
2023/07/09 01:57:23;;;;;;;13.00;6.75;;;;;;;20.34;92.89;100250.22;5085527;28;20118;-18
2023/07/09 01:59:57;;;;;;;10.27;6.57;;;;;;;20.42;92.25;100267.78;5085746;28;20108;-18
2023/07/09 02:02:23;;;;;;;9.15;6.30;;;;;;;20.45;90.25;100268.03;5085829;28;20204;-17
2023/07/09 02:04:50;;;;;;;10.10;6.60;;;;;;;20.37;90.19;100260.50;5085460;28;20118;-20
2023/07/09 02:07:17;;;;;;;11.65;6.25;;;;;;;20.40;91.66;100269.97;5085518;28;20051;-19
2023/07/09 02:09:43;;;;;;;10.68;6.28;;;;;;;20.32;88.46;100267.84;5085907;28;20040;-22
2023/07/09 02:12:09;;;;;;;12.35;7.63;;;;;;;20.29;90.51;100263.78;5085714;28;20043;-18
2023/07/09 02:14:36;;;;;;;11.80;7.22;;;;;;;20.37;91.89;100268.63;5085264;28;20027;-19
2023/07/09 02:17:01;;;;;;;10.40;6.20;;;;;;;20.58;90.83;100279.34;5085786;28;20065;-19
2023/07/09 02:19:28;;;;;;;8.90;5.78;;;;;;;20.48;86.77;100277.50;5085115;28;20023;-19
2023/07/09 02:21:54;;;;;;;10.95;6.05;;;;;;;20.16;90.49;100281.44;5078930;28;20041;-18
2023/07/09 02:24:24;;;;;;;8.95;6.03;;;;;;;20.26;87.59;100273.25;5064766;28;20106;-18
2023/07/09 02:26:52;;;;;;;9.13;5.50;;;;;;;20.12;90.18;100290.38;5065453;28;20025;-19
2023/07/09 02:29:18;;;;;;;10.20;6.43;;;;;;;20.18;88.98;100283.88;5065048;28;20097;-18
2023/07/09 02:31:45;;;;;;;10.18;6.30;;;;;;;19.77;90.94;100267.78;5064907;28;20029;-20
2023/07/09 02:34:10;;;;;;;10.85;6.80;;;;;;;19.64;87.94;100291.59;5064914;28;20523;-18
2023/07/09 02:36:42;;;;;;;10.60;6.78;;;;;;;19.66;93.61;100294.81;5064989;28;20044;-18
2023/07/09 02:39:12;;;;;;;12.13;6.75;;;;;;;19.51;89.58;100294.03;5065173;28;20044;-19
2023/07/09 02:41:39;;;;;;;10.73;6.75;;;;;;;19.70;91.76;100305.13;5064613;28;20525;-18
2023/07/09 02:44:05;;;;;;;11.82;7.28;;;;;;;19.42;88.91;100301.91;5064588;28;20170;-20
2023/07/09 02:46:30;;;;;;;10.95;7.15;;;;;;;19.38;90.86;100311.63;5064539;28;20463;-19
2023/07/09 02:48:56;;;;;;;12.35;6.70;;;;;;;19.31;91.60;100313.78;5064760;28;20025;-18
2023/07/09 02:51:26;;;;;;;12.05;7.00;;;;;;;19.43;90.51;100308.91;5064621;28;20063;-17
2023/07/09 02:53:58;;;;;;;11.68;6.53;;;;;;;19.07;89.83;100300.81;5064633;28;20112;-18
2023/07/09 02:56:29;;;;;;;10.52;7.15;;;;;;;19.11;90.52;100312.72;5064536;28;20034;-18
2023/07/09 02:58:55;;;;;;;11.05;7.03;;;;;;;19.14;92.90;100312.16;5064631;28;20803;-18
2023/07/09 03:01:24;;;;;;;10.95;7.53;;;;;;;19.22;95.33;100311.63;5064175;28;20032;-19
2023/07/09 03:03:51;;;;;;;12.30;7.15;;;;;;;19.59;94.22;100312.41;5064225;28;20120;-18
2023/07/09 03:06:16;;;;;;;10.93;6.82;;;;;;;19.63;91.46;100313.50;5064210;28;20024;-18
2023/07/09 03:08:44;;;;;;;10.02;7.03;;;;;;;19.44;88.52;100324.06;5064565;28;20086;-20
2023/07/09 03:11:17;;;;;;;11.77;7.68;;;;;;;19.22;90.11;100311.63;5064705;28;20508;-19
2023/07/09 03:13:45;;;;;;;12.07;7.32;;;;;;;19.32;93.64;100315.44;5064819;28;20549;-24
2023/07/09 03:16:11;;;;;;;9.80;6.13;;;;;;;19.16;93.69;100314.59;5064651;28;20016;-18
2023/07/09 03:18:37;;;;;;;11.45;7.05;;;;;;;19.16;94.39;100318.13;5064454;28;20101;-21
2023/07/09 03:21:02;;;;;;;9.10;6.82;;;;;;;19.26;94.01;100312.72;5064262;28;20040;-19
2023/07/09 03:23:28;;;;;;;10.10;8.07;;;;;;;19.31;93.00;100314.63;5064096;28;20528;-18
2023/07/09 03:25:55;;;;;;;10.20;6.47;;;;;;;19.32;94.69;100320.84;5064045;28;20021;-18
2023/07/09 03:28:23;;;;;;;12.45;7.30;;;;;;;19.56;93.94;100327.31;5064090;28;20119;-18
2023/07/09 03:30:48;;;;;;;;;;;;;;;19.83;92.31;100326.22;5064829;28;20169;-19
2023/07/09 03:33:16;;;;;;;11.25;6.72;;;;;;;19.63;93.03;100310.78;5064105;28;20342;-18
2023/07/09 03:35:42;;;;;;;11.20;6.40;;;;;;;19.84;92.39;100335.97;5064362;28;20123;-18
2023/07/09 03:38:09;;;;;;;11.73;6.75;;;;;;;19.68;90.38;100319.72;5064049;28;20170;-18
2023/07/09 03:40:36;;;;;;;10.70;6.85;;;;;;;19.73;91.51;100331.66;5064009;28;20760;-18
2023/07/09 03:43:02;;;;;;;9.45;6.35;;;;;;;19.78;91.51;100342.47;5064376;28;20521;-18
2023/07/09 03:45:28;;;;;;;11.50;6.47;;;;;;;19.89;91.49;100341.34;5063685;28;20055;-20
2023/07/09 03:47:53;;;;;;;12.43;6.10;;;;;;;19.92;90.86;100343.53;5064157;28;20035;-19
2023/07/09 03:50:19;;;;;;;10.75;6.35;;;;;;;20.00;90.13;100342.97;5064130;28;20124;-18
2023/07/09 03:52:46;;;;;;;12.50;6.60;;;;;;;20.04;89.97;100337.78;5064155;28;20037;-22
2023/07/09 03:55:13;;;;;;;10.27;6.90;;;;;;;19.96;90.63;100335.66;5063917;28;20032;-19
2023/07/09 03:57:38;;;;;;;12.20;7.63;;;;;;;20.21;87.17;100332.88;5064287;28;20086;-18
2023/07/09 04:00:04;;;;;;;9.70;7.38;;;;;;;20.27;89.00;100339.09;5064392;28;20025;-19
2023/07/09 04:02:31;;;;;;;9.02;6.53;;;;;;;20.47;87.55;100335.47;5064182;28;20021;-19
2023/07/09 04:04:56;;;;;;;9.70;6.38;;;;;;;20.19;89.49;100336.94;5063873;28;20432;-18
2023/07/09 04:07:23;;;;;;;11.60;7.25;;;;;;;19.72;89.98;100325.44;5063807;28;20570;-18
2023/07/09 04:09:48;;;;;;;11.52;6.85;;;;;;;19.85;89.74;100345.69;5063696;28;20020;-18
2023/07/09 04:12:14;;;;;;;10.68;7.25;;;;;;;19.87;88.79;100346.22;5063578;28;20093;-23
2023/07/09 04:14:43;;;;;;;9.68;7.28;;;;;;;19.60;91.20;100333.78;5064632;28;20029;-18
2023/07/09 04:17:10;;;;;;;11.93;7.03;;;;;;;19.71;90.82;100339.22;5067494;28;20025;-19
2023/07/09 04:19:36;;;;;;;10.63;7.32;;;;;;;19.77;90.51;100343.53;5067202;28;20035;-18
2023/07/09 04:22:01;;;;;;;11.02;7.20;;;;;;;19.79;90.28;100335.97;5067305;28;20032;-18
2023/07/09 04:24:31;;;;;;;12.23;6.97;;;;;;;19.91;88.97;100336.47;5067218;28;20033;-21
2023/07/09 04:26:57;;;;;;;10.70;7.25;;;;;;;20.17;86.02;100341.84;5067186;28;20040;-18
2023/07/09 04:29:23;;;;;;;10.30;6.63;;;;;;;20.13;87.29;100343.47;5067131;28;20052;-18
2023/07/09 04:31:49;;;;;;;9.15;6.72;;;;;;;20.25;86.37;100339.34;5067395;28;20029;-19
2023/07/09 04:34:14;;;;;;;10.32;7.05;;;;;;;20.43;85.38;100350.66;5067052;28;20085;-18
2023/07/09 04:36:40;;;;;;;11.50;7.25;;;;;;;20.27;86.37;100344.50;5067276;28;20027;-18
2023/07/09 04:39:05;;;;;;;12.98;7.68;;;;;;;20.39;85.82;100345.00;5067160;28;20025;-19
2023/07/09 04:41:31;;;;;;;13.23;7.40;;;;;;;20.39;86.23;100338.75;5067188;28;20433;-19
2023/07/09 04:43:57;;;;;;;10.02;7.40;;;;;;;20.53;85.64;100344.38;5067246;28;20028;-19
2023/07/09 04:46:22;;;;;;;9.98;6.40;;;;;;;20.62;84.93;100353.59;5067151;28;20067;-19
2023/07/09 04:48:48;;;;;;;12.10;6.63;;;;;;;20.92;82.84;100349.06;5066992;28;20115;-19
2023/07/09 04:51:13;;;;;;;8.73;6.22;;;;;;;21.01;82.47;100360.97;5067312;28;20016;-18
2023/07/09 04:53:39;;;;;;;14.38;7.25;;;;;;;21.17;82.36;100362.47;5066765;28;20028;-19
2023/07/09 04:56:09;;;;;;;10.38;6.20;;;;;;;21.25;79.21;100351.03;5066909;28;20090;-18
2023/07/09 04:58:34;;;;;;;10.18;6.60;;;;;;;21.29;78.23;100345.84;5066771;28;20028;-18
2023/07/09 05:01:00;;;;;;;7.35;5.22;;;;;;;21.41;76.49;100353.59;5066784;28;20039;-18
2023/07/09 05:03:26;;;;;;;7.30;5.22;;;;;;;21.52;77.24;100355.16;5066664;28;20078;-18
2023/07/09 05:05:52;;;;;;;9.68;5.63;;;;;;;21.63;78.50;100359.41;5066596;28;20111;-18
2023/07/09 05:08:17;;;;;;;10.45;5.43;;;;;;;21.85;75.91;100363.53;5066315;28;20025;-18
2023/07/09 05:10:47;;;;;;;7.95;5.40;;;;;;;22.07;73.68;100365.75;5066854;28;20086;-18
2023/07/09 05:13:12;;;;;;;9.95;5.03;;;;;;;22.06;72.36;100361.41;5067012;28;20024;-19
2023/07/09 05:15:48;;;;;;;9.18;4.85;;;;;;;21.87;72.06;100366.78;5066503;28;20032;-18
2023/07/09 05:18:15;;;;;;;9.35;6.00;;;;;;;22.02;73.02;100365.81;5066557;28;20028;-18
2023/07/09 05:20:40;;;;;;;10.00;5.50;;;;;;;22.02;73.90;100361.19;5066573;28;20027;-19
2023/07/09 05:23:07;;;;;;;8.82;5.95;;;;;;;22.13;74.13;100369.22;5065917;28;20028;-18
2023/07/09 05:25:33;;;;;;;9.98;5.35;;;;;;;22.34;73.34;100369.84;5066311;28;20031;-18
2023/07/09 05:27:58;;;;;;;10.27;5.25;;;;;;;22.56;72.81;100366.59;5066388;28;20045;-19
2023/07/09 05:30:24;;;;;;;9.95;5.25;;;;;;;22.70;71.72;100367.47;5066248;28;20424;-20
2023/07/09 05:32:49;;;;;;;11.52;4.93;;;;;;;22.65;71.50;100364.81;5066062;28;20028;-20
2023/07/09 05:35:18;;;;;;;7.90;4.82;;;;;;;22.83;70.94;100360.50;5066372;28;20776;-18
2023/07/09 05:37:43;;;;;;;6.93;4.60;;;;;;;22.92;70.32;100374.25;5066311;28;20032;-18
2023/07/09 05:40:11;;;;;;;10.23;5.20;;;;;;;23.09;69.61;100374.56;5065977;28;20432;-18
2023/07/09 05:42:36;;;;;;;;;;;;;;;23.37;66.84;100380.13;5066373;28;20840;-19
2023/07/09 05:45:05;;;;;;;9.45;5.00;;;;;;;23.35;67.29;100376.88;5065693;28;20389;-20
2023/07/09 05:47:30;;;;;;;9.85;4.75;;;;;;;23.60;66.75;100387.38;5065861;28;20028;-18
2023/07/09 05:49:55;;;;;;;7.38;4.28;;;;;;;23.76;65.73;100387.09;5065205;28;20688;-19
2023/07/09 05:52:24;;;;;;;7.38;4.82;;;;;;;23.72;64.56;100380.63;5065847;28;20025;-19
2023/07/09 05:54:51;;;;;;;7.57;4.40;;;;;;;23.94;63.39;100386.25;5065443;28;20032;-18
2023/07/09 05:57:16;;;;;;;8.88;4.45;;;;;;;24.11;65.04;100384.84;5066151;28;20051;-23
2023/07/09 05:59:42;;;;;;;7.65;4.13;;;;;;;24.38;63.47;100381.34;5065787;28;20496;-18
2023/07/09 06:02:12;;;;;;;8.40;4.03;;;;;;;24.51;59.91;100379.72;5065497;28;20052;-18
2023/07/09 06:04:38;;;;;;;6.68;3.60;;;;;;;24.49;59.79;100381.91;5065541;28;20028;-19
2023/07/09 06:07:03;;;;;;;6.75;4.18;;;;;;;24.78;59.75;100379.66;5065339;28;20029;-18
2023/07/09 06:09:32;;;;;;;8.55;3.97;;;;;;;24.76;57.43;100381.09;5065429;28;20027;-18
2023/07/09 06:11:58;;;;;;;7.63;3.72;;;;;;;24.75;57.15;100374.84;5065700;28;20035;-18
2023/07/09 06:14:28;;;;;;;4.78;3.55;;;;;;;24.85;55.04;100363.69;5065480;28;20028;-18
2023/07/09 06:16:53;;;;;;;6.15;3.90;;;;;;;24.76;56.89;100360.06;5065351;28;20024;-18
2023/07/09 06:19:18;;;;;;;7.60;4.10;;;;;;;24.75;56.64;100363.94;5064944;28;20421;-19
2023/07/09 06:21:46;;;;;;;7.18;3.85;;;;;;;24.89;57.17;100363.06;5065096;28;20036;-18
2023/07/09 06:24:13;;;;;;;8.77;3.75;;;;;;;24.83;56.89;100352.28;5078586;28;20035;-20
2023/07/09 06:26:41;;;;;;;6.45;3.40;;;;;;;24.94;55.71;100365.69;5085158;28;20551;-18
2023/07/09 06:29:06;;;;;;;8.15;3.50;;;;;;;25.04;53.68;100362.72;5085224;28;20120;-18
2023/07/09 06:31:32;;;;;;;5.78;3.70;;;;;;;25.25;53.42;100366.63;5084927;28;20090;-22
2023/07/09 06:33:57;;;;;;;6.15;3.70;;;;;;;25.20;54.06;100357.72;5085252;28;20777;-18
2023/07/09 06:36:26;;;;;;;8.02;3.72;;;;;;;25.47;53.39;100367.72;5084792;28;20048;-18
2023/07/09 06:38:51;;;;;;;6.88;3.55;;;;;;;25.76;52.78;100363.72;5084688;28;20039;-18
2023/07/09 06:41:17;;;;;;;8.32;3.90;;;;;;;25.66;52.10;100348.41;5085543;28;20031;-19
2023/07/09 06:43:43;;;;;;;6.32;3.50;;;;;;;25.81;51.21;100369.84;5084688;28;20382;-20
2023/07/09 06:46:11;;;;;;;6.38;3.47;;;;;;;25.86;50.77;100352.50;5084949;28;20032;-19
2023/07/09 06:48:36;;;;;;;6.20;3.50;;;;;;;25.95;49.91;100367.06;5084901;28;20534;-18
2023/07/09 06:51:02;;;;;;;6.68;3.60;;;;;;;26.09;49.63;100358.72;5084764;28;20567;-18
2023/07/09 06:53:29;;;;;;;6.95;3.50;;;;;;;26.14;49.39;100357.81;5084636;28;20035;-19
2023/07/09 06:56:00;;;;;;;7.43;3.67;;;;;;;26.09;52.22;100350.53;5084743;28;20647;-18
2023/07/09 06:58:27;;;;;;;13.05;7.38;;;;;;;26.00;52.35;100353.25;5084631;28;20043;-19
2023/07/09 07:00:54;;;;;;;5.90;3.15;;;;;;;26.21;49.54;100361.66;5084849;28;20052;-18
2023/07/09 07:03:23;;;;;;;6.75;3.58;;;;;;;26.26;49.36;100349.81;5084826;28;20040;-19
2023/07/09 07:05:49;;;;;;;7.38;3.72;;;;;;;26.46;45.90;100365.63;5084476;28;20043;-21
2023/07/09 07:08:17;;;;;;;7.63;3.30;;;;;;;26.53;47.75;100345.19;5084942;28;20413;-19
2023/07/09 07:10:44;;;;;;;6.75;3.58;;;;;;;26.52;48.33;100359.97;5084682;28;20103;-18
2023/07/09 07:13:09;;;;;;;5.60;3.30;;;;;;;26.58;48.91;100350.53;5083327;28;20040;-18
2023/07/09 07:15:39;;;;;;;6.72;3.10;;;;;;;26.63;47.33;100353.94;5084212;28;20034;-19
2023/07/09 07:18:05;;;;;;;5.53;3.08;;;;;;;26.76;48.34;100341.22;5084655;28;20028;-19
2023/07/09 07:20:31;;;;;;;8.20;3.55;;;;;;;26.91;46.71;100350.06;5084414;28;20031;-19
2023/07/09 07:22:57;;;;;;;5.28;3.20;;;;;;;26.90;48.44;100341.06;5084376;28;20060;-20
2023/07/09 07:25:28;;;;;;;4.63;3.25;;;;;;;27.06;45.59;100346.88;5084396;28;20120;-19
2023/07/09 07:27:56;;;;;;;7.07;3.20;;;;;;;27.09;47.22;100343.47;5084443;28;20048;-19
2023/07/09 07:30:24;;;;;;;5.60;3.38;;;;;;;27.08;44.52;100347.34;5084566;28;20047;-19
2023/07/09 07:32:49;;;;;;;5.75;3.08;;;;;;;27.07;43.76;100340.25;5084187;28;20070;-21
2023/07/09 07:35:15;;;;;;;6.43;3.53;;;;;;;27.33;44.68;100347.66;5084550;28;20024;-21
2023/07/09 07:37:41;;;;;;;5.65;3.40;;;;;;;27.56;44.69;100346.31;5084636;28;20089;-20
2023/07/09 07:40:08;;;;;;;5.45;2.90;;;;;;;27.75;43.31;100347.91;5084529;28;20032;-19
2023/07/09 07:42:33;;;;;;;5.10;2.97;;;;;;;27.63;42.94;100352.09;5084206;28;20024;-19
2023/07/09 07:44:59;;;;;;;6.60;2.88;;;;;;;27.63;41.93;100346.63;5084397;28;20028;-19
2023/07/09 07:47:26;;;;;;;5.20;2.90;;;;;;;27.71;42.36;100341.47;5084184;28;20312;-18
2023/07/09 07:49:52;;;;;;;;;;;;;;;27.90;40.37;100349.31;5085701;28;20073;-20
2023/07/09 07:52:17;;;;;;;4.70;2.70;;;;;;;27.75;40.91;100353.38;5088364;28;19908;-18
2023/07/09 07:54:43;;;;;;;5.93;3.15;;;;;;;27.71;41.71;100349.69;5087938;28;20473;-19
2023/07/09 07:57:09;;;;;;;6.35;3.22;;;;;;;27.87;41.94;100345.31;5087855;28;20032;-18
2023/07/09 07:59:35;;;;;;;5.90;3.10;;;;;;;27.91;40.62;100346.25;5087952;28;20031;-18
2023/07/09 08:02:04;;;;;;;5.88;3.28;;;;;;;27.82;40.10;100331.72;5070235;28;20035;-18
2023/07/09 08:04:30;;;;;;;7.93;3.38;;;;;;;27.76;41.25;100341.28;5087934;28;20567;-19
2023/07/09 08:06:55;;;;;;;6.07;3.35;;;;;;;27.63;40.79;100340.34;5087759;28;20024;-18
2023/07/09 08:09:21;;;;;;;5.85;3.20;;;;;;;27.88;40.90;100341.41;5088061;28;20584;-21
2023/07/09 08:11:46;;;;;;;6.63;3.13;;;;;;;27.96;42.02;100331.56;5087957;28;20034;-19
2023/07/09 08:14:12;;;;;;;8.75;3.20;;;;;;;28.20;41.28;100339.19;5087847;28;20028;-20
2023/07/09 08:16:37;;;;;;;5.10;3.20;;;;;;;28.14;40.84;100333.06;5087744;28;20028;-19
2023/07/09 08:19:03;;;;;;;6.95;3.30;;;;;;;28.35;40.69;100333.09;5087964;28;20123;-19
2023/07/09 08:21:28;;;;;;;5.38;2.85;;;;;;;28.28;40.22;100327.34;5087358;28;20496;-19
2023/07/09 08:23:54;;;;;;;5.78;2.78;;;;;;;28.36;38.35;100328.41;5068795;28;20024;-18
2023/07/09 08:26:19;;;;;;;6.60;2.85;;;;;;;28.44;39.17;100322.91;5067489;28;20119;-18
2023/07/09 08:28:45;;;;;;;8.73;3.20;;;;;;;28.47;38.78;100320.63;5067376;28;20102;-20
2023/07/09 08:31:10;;;;;;;6.35;3.28;;;;;;;28.32;38.79;100328.28;5067301;28;20036;-18
2023/07/09 08:33:36;;;;;;;5.75;2.83;;;;;;;28.84;39.88;100327.94;5067110;28;20036;-18
2023/07/09 08:36:10;;;;;;;5.55;3.42;;;;;;;28.78;38.55;100312.00;5067036;28;20028;-19
2023/07/09 08:38:36;;;;;;;6.78;2.95;;;;;;;28.81;37.60;100319.56;5067733;28;20516;-19
2023/07/09 08:41:07;;;;;;;5.60;3.05;;;;;;;29.31;38.01;100315.09;5066697;28;20029;-18
2023/07/09 08:43:44;;;;;;;4.78;2.70;;;;;;;29.41;36.18;100322.91;5066760;28;20028;-18
2023/07/09 08:46:19;;;;;;;5.30;2.97;;;;;;;29.45;34.86;100312.84;5066824;28;20028;-18
2023/07/09 08:48:49;;;;;;;5.97;3.10;;;;;;;29.47;36.77;100294.06;5067170;28;20032;-19
2023/07/09 08:51:38;;;;;;;6.20;3.10;;;;;;;29.52;35.08;100307.56;5067043;28;20073;-19
2023/07/09 08:54:28;;;;;;;5.22;3.03;;;;;;;29.46;34.89;100303.44;5066705;28;20051;-18
2023/07/09 08:56:55;;;;;;;5.80;3.15;;;;;;;29.49;34.20;100310.22;5067007;28;20537;-20
2023/07/09 08:59:24;;;;;;;5.90;2.78;;;;;;;29.46;34.43;100306.19;5066656;28;20121;-20
2023/07/09 09:01:52;;;;;;;5.53;2.88;;;;;;;29.59;35.54;100307.84;5066243;28;20089;-18
2023/07/09 09:04:31;;;;;;;4.68;2.65;;;;;;;29.53;34.45;100314.69;5066828;28;20041;-19
2023/07/09 09:07:23;;;;;;;6.20;2.88;;;;;;;29.48;35.23;100306.66;5066629;28;20033;-18
2023/07/09 09:09:58;;;;;;;6.70;3.05;;;;;;;29.41;35.49;100289.94;5066875;28;20066;-19
2023/07/09 09:12:52;;;;;;;4.53;2.55;;;;;;;29.81;34.31;100308.56;5066223;28;20617;-18
2023/07/09 09:15:20;;;;;;;5.10;2.65;;;;;;;29.87;32.18;100312.69;5059283;28;20052;-19
2023/07/09 09:17:53;;;;;;;6.47;2.83;;;;;;;30.01;32.89;100301.34;5066395;28;20028;-19
2023/07/09 09:20:22;;;;;;;4.45;2.65;;;;;;;30.05;33.75;100303.06;5066508;28;20021;-18
2023/07/09 09:23:10;;;;;;;7.20;2.90;;;;;;;30.40;31.51;100301.78;5066196;28;20029;-19
2023/07/09 09:25:41;;;;;;;7.35;3.08;;;;;;;30.42;31.65;100299.47;5066464;28;20119;-18
2023/07/09 09:28:11;;;;;;;5.72;2.75;;;;;;;30.47;32.48;100295.72;5066296;28;20033;-19
2023/07/09 09:30:38;;;;;;;7.15;2.80;;;;;;;30.61;32.10;100301.63;5065945;28;20024;-19
2023/07/09 09:33:12;;;;;;;4.97;2.80;;;;;;;30.63;32.81;100288.31;5065729;28;20117;-18
2023/07/09 09:35:45;;;;;;;5.40;2.80;;;;;;;30.52;32.13;100292.69;5066086;28;20025;-18
2023/07/09 09:38:22;;;;;;;5.70;3.03;;;;;;;30.69;32.07;100292.44;5065514;28;20039;-19
2023/07/09 09:40:50;;;;;;;17.33;3.70;;;;;;;30.81;33.00;100299.81;5065759;28;20063;-19
2023/07/09 09:43:19;;;;;;;22.52;5.90;;;;;;;30.93;33.81;100291.53;5065693;28;20033;-19
2023/07/09 09:45:46;;;;;;;4.78;2.67;;;;;;;31.33;32.06;100298.13;5065741;28;20025;-18
2023/07/09 09:48:21;;;;;;;;;;;;;;;31.38;30.80;100300.59;5066378;28;20024;-19
2023/07/09 09:50:51;;;;;;;5.50;2.90;;;;;;;31.40;31.43;100299.06;5066063;28;19921;-18
2023/07/09 09:53:20;;;;;;;5.80;2.70;;;;;;;31.51;28.34;100282.06;5066099;28;20030;-18
2023/07/09 09:55:48;;;;;;;6.90;2.60;;;;;;;31.80;27.72;100298.16;5065263;28;20032;-19
2023/07/09 09:58:16;;;;;;;6.15;2.65;;;;;;;31.76;28.09;100283.47;5065272;28;20031;-19
2023/07/09 10:00:48;;;;;;;4.70;2.53;;;;;;;32.05;29.44;100284.16;5065477;28;20048;-19
2023/07/09 10:03:15;;;;;;;5.30;2.47;;;;;;;32.42;27.72;100287.34;5065426;28;20119;-18
2023/07/09 10:05:50;;;;;;;4.80;2.70;;;;;;;32.41;27.42;100288.53;5065454;28;20063;-19
2023/07/09 10:08:22;;;;;;;4.95;2.60;;;;;;;32.68;27.62;100285.16;5065493;28;20026;-19
2023/07/09 10:10:52;;;;;;;4.88;2.55;;;;;;;32.43;29.09;100277.91;5065512;28;20036;-19
2023/07/09 10:13:31;;;;;;;4.63;2.55;;;;;;;32.59;27.84;100277.88;5064856;28;20029;-19
2023/07/09 10:16:35;;;;;;;3.63;2.60;;;;;;;31.73;28.71;100256.63;5065227;28;20052;-19
2023/07/09 10:19:14;;;;;;;5.50;2.88;;;;;;;31.98;28.53;100271.00;5065229;28;20093;-18
2023/07/09 10:21:58;;;;;;;7.55;2.80;;;;;;;32.02;27.68;100257.31;5065240;28;20032;-18
2023/07/09 10:24:55;;;;;;;5.22;2.60;;;;;;;32.35;28.20;100254.09;5065208;28;20119;-19
2023/07/09 10:27:26;;;;;;;4.78;2.70;;;;;;;32.27;27.75;100246.81;5064486;28;20048;-24
2023/07/09 10:29:58;;;;;;;4.80;2.60;;;;;;;32.56;27.31;100258.47;5046972;28;20589;-18
2023/07/09 10:32:26;;;;;;;5.25;2.95;;;;;;;32.41;27.12;100258.16;5063843;28;20028;-19
2023/07/09 10:34:54;;;;;;;7.40;2.95;;;;;;;32.40;26.82;100256.56;5063092;28;20120;-19
2023/07/09 10:37:53;;;;;;;4.88;2.88;;;;;;;32.40;27.55;100248.28;5063741;28;20036;-19
2023/07/09 10:40:36;;;;;;;4.97;2.78;;;;;;;32.63;28.01;100250.34;5064309;28;20112;-20
2023/07/09 10:43:04;;;;;;;5.28;2.80;;;;;;;32.47;28.74;100233.00;5064831;28;20695;-19
2023/07/09 10:45:38;;;;;;;5.10;3.15;;;;;;;32.69;29.59;100246.13;5064802;28;20029;-21
2023/07/09 10:48:13;;;;;;;4.07;2.55;;;;;;;33.03;27.45;100244.38;5064575;28;20113;-18
2023/07/09 10:50:41;;;;;;;6.97;3.08;;;;;;;32.93;27.15;100228.41;5064626;28;20031;-19
2023/07/09 10:53:16;;;;;;;8.30;2.90;;;;;;;33.18;27.95;100228.91;5064701;28;20025;-19
2023/07/09 10:55:56;;;;;;;5.45;2.63;;;;;;;33.22;27.72;100240.84;5064832;28;20032;-19
2023/07/09 10:58:30;;;;;;;6.53;2.80;;;;;;;33.50;27.37;100242.47;5063987;28;20536;-20
2023/07/09 11:00:57;;;;;;;5.45;2.92;;;;;;;33.82;26.28;100233.91;5064788;28;20035;-19
2023/07/09 11:03:52;;;;;;;4.63;2.63;;;;;;;33.11;26.71;100223.25;5064402;28;20060;-20
2023/07/09 11:06:25;;;;;;;6.38;2.60;;;;;;;33.74;26.27;100226.66;5064849;28;20109;-19
2023/07/09 11:08:55;;;;;;;5.18;2.83;;;;;;;33.58;26.22;100224.81;5064660;28;20090;-19
2023/07/09 11:11:55;;;;;;;4.80;2.50;;;;;;;33.29;27.64;100228.31;5064656;28;20032;-19
2023/07/09 11:14:40;;;;;;;5.65;2.90;;;;;;;33.16;25.43;100224.91;5061502;28;20044;-21
2023/07/09 11:17:11;;;;;;;4.93;2.90;;;;;;;33.64;26.79;100221.78;5064428;28;20109;-19
2023/07/09 11:19:43;;;;;;;3.90;2.38;;;;;;;33.36;25.01;100217.34;5064571;28;20039;-18
2023/07/09 11:22:16;;;;;;;5.50;2.28;;;;;;;33.53;25.21;100216.84;5064172;28;20036;-19
2023/07/09 11:24:50;;;;;;;4.15;2.58;;;;;;;33.39;26.48;100217.41;5068240;28;20039;-18
2023/07/09 11:27:18;;;;;;;6.63;2.80;;;;;;;33.49;25.98;100210.47;5072541;28;20789;-19
2023/07/09 11:29:55;;;;;;;4.95;2.53;;;;;;;33.22;26.44;100217.91;5091235;28;20565;-20
2023/07/09 11:32:22;;;;;;;4.22;2.45;;;;;;;33.46;24.51;100205.66;5091598;28;20032;-19
2023/07/09 11:34:48;;;;;;;5.50;2.38;;;;;;;33.90;24.30;100212.66;5091562;28;20034;-18